createdAt,value
2017-07-04T00:00:49.693Z,84.80
2017-07-04T00:20:50.189Z,79.56
2017-07-04T00:40:50.703Z,77.72
2017-07-04T01:15:51.453Z,46.98
2017-07-04T01:35:51.892Z,27.05
2017-07-04T01:55:52.368Z,84.99
2017-07-04T02:15:52.887Z,99.85
2017-07-04T02:35:09.927Z,83.04
2017-07-04T02:55:10.478Z,99.85
2017-07-04T03:15:09.812Z,100.00
2017-07-04T03:35:10.337Z,98.48
2017-07-04T03:55:10.868Z,100.00
2017-07-04T04:15:11.376Z,99.54
2017-07-04T04:35:11.893Z,99.81
2017-07-04T05:05:12.693Z,97.75
2017-07-04T05:25:13.073Z,100.00
2017-07-04T05:45:13.614Z,99.98
2017-07-04T06:05:14.089Z,100.00
2017-07-04T06:25:14.822Z,100.00
2017-07-04T06:45:15.323Z,100.00
2017-07-04T07:05:15.685Z,100.00
2017-07-04T07:25:16.210Z,100.00
2017-07-04T07:45:16.686Z,100.00
2017-07-04T08:05:17.213Z,100.00
2017-07-04T08:25:17.753Z,100.00
2017-07-04T08:45:18.293Z,99.69
2017-07-04T09:05:18.751Z,92.43
2017-07-04T09:25:19.288Z,93.37
2017-07-04T09:45:19.834Z,99.78
2017-07-04T10:05:20.377Z,99.50
2017-07-04T10:25:20.824Z,79.67
2017-07-04T10:55:21.557Z,81.85
2017-07-04T11:15:22.114Z,99.22
2017-07-04T11:35:22.662Z,99.42
2017-07-04T11:55:23.217Z,63.90
2017-07-04T12:15:23.769Z,75.73
2017-07-04T12:35:24.305Z,59.42
2017-07-04T12:55:24.754Z,26.47
2017-07-04T13:15:25.161Z,80.87
2017-07-04T13:35:25.699Z,48.34
2017-07-04T13:55:26.194Z,3.76
2017-07-04T14:15:26.697Z,9.92
2017-07-04T14:35:27.206Z,16.19
2017-07-04T14:55:27.723Z,22.96
2017-07-04T15:15:28.273Z,10.48
2017-07-04T15:35:28.819Z,53.85
2017-07-04T15:55:29.317Z,7.74
2017-07-04T16:15:29.879Z,12.08
2017-07-04T16:35:30.392Z,20.03
2017-07-04T16:55:30.917Z,63.44
2017-07-04T17:15:31.461Z,83.89
2017-07-04T17:35:31.984Z,67.45
2017-07-04T17:55:32.534Z,91.48
2017-07-04T18:15:33.086Z,94.61
2017-07-04T18:35:33.610Z,90.94
2017-07-04T18:55:34.169Z,92.03
2017-07-04T19:15:34.653Z,86.81
2017-07-04T19:35:35.156Z,41.82
2017-07-04T19:55:35.700Z,71.23
2017-07-04T20:26:20.964Z,8.93
2017-07-04T20:46:21.434Z,83.11
2017-07-04T21:06:21.972Z,97.50
2017-07-04T21:26:22.434Z,91.74
2017-07-04T21:46:22.875Z,67.42
2017-07-04T22:06:23.323Z,42.22
2017-07-04T22:26:23.795Z,70.91
2017-07-04T22:46:24.243Z,79.98
2017-07-04T23:06:24.760Z,90.36
2017-07-04T23:26:25.186Z,91.18
2017-07-04T23:46:25.637Z,86.48
